Time;durP1;ratioP1;P1;durP2;ratioP2;P2;SDS_P1;SDS_P2;PMS_P1;PMS_P2;Temp;Humidity;BMP_temperature;BMP_pressure;BME280_temperature;BME280_humidity;BME280_pressure;Samples;Min_cycle;Max_cycle;Signal;HPM_P1;HPM_P2
2022/07/02 00:01:58;;;;;;;0.10;0.10;;;16.00;99.90;;;;;;5069496;28;20463;-69
2022/07/02 00:04:29;;;;;;;0.10;0.10;;;16.00;99.90;;;;;;5070548;28;20051;-69
2022/07/02 00:06:55;;;;;;;0.20;0.20;;;15.90;99.90;;;;;;5069388;28;20055;-69
2022/07/02 00:09:21;;;;;;;0.03;0.03;;;15.90;99.90;;;;;;5070488;28;20044;-69
2022/07/02 00:11:48;;;;;;;0.28;0.22;;;15.90;99.90;;;;;;5070645;28;20049;-69
2022/07/02 00:14:15;;;;;;;0.10;0.10;;;15.90;99.90;;;;;;5066961;28;20048;-68
2022/07/02 00:16:45;;;;;;;0.17;0.17;;;16.00;99.90;;;;;;5045514;28;20045;-69
2022/07/02 00:19:13;;;;;;;0.00;0.00;;;15.90;99.90;;;;;;5070513;28;20083;-69
2022/07/02 00:21:39;;;;;;;0.30;0.30;;;15.90;99.90;;;;;;5070676;28;20049;-69
2022/07/02 00:24:09;;;;;;;0.38;0.38;;;15.80;99.90;;;;;;5075210;28;20051;-69
2022/07/02 00:26:39;;;;;;;0.00;0.00;;;15.80;99.90;;;;;;5090932;28;20040;-69
2022/07/02 00:29:21;;;;;;;0.65;0.43;;;15.70;99.90;;;;;;5088438;28;20372;-69
2022/07/02 00:31:48;;;;;;;0.20;0.20;;;15.80;99.90;;;;;;5047494;28;20048;-69
2022/07/02 00:34:16;;;;;;;0.00;0.00;;;15.70;99.90;;;;;;5034414;28;20049;-69
2022/07/02 00:36:43;;;;;;;0.10;0.10;;;15.70;99.90;;;;;;5090257;28;20044;-69
2022/07/02 00:39:09;;;;;;;0.10;0.10;;;15.60;99.90;;;;;;5080150;28;20036;-69
2022/07/02 00:41:35;;;;;;;0.00;0.00;;;15.60;99.90;;;;;;5070168;28;20492;-69
2022/07/02 00:44:05;;;;;;;0.35;0.35;;;15.60;99.90;;;;;;5070480;28;20040;-69
2022/07/02 00:46:32;;;;;;;0.10;0.10;;;15.60;99.90;;;;;;5051593;28;20504;-69
2022/07/02 00:49:00;;;;;;;0.10;0.10;;;15.60;99.90;;;;;;5072126;28;20048;-69
2022/07/02 00:51:26;;;;;;;0.03;0.03;;;15.50;99.90;;;;;;5068727;28;20484;-68
2022/07/02 00:53:52;;;;;;;0.10;0.10;;;15.40;99.90;;;;;;5060968;28;20098;-69
2022/07/02 00:56:18;;;;;;;0.00;0.00;;;15.40;99.90;;;;;;5052084;28;20056;-69
2022/07/02 00:58:45;;;;;;;0.05;0.05;;;15.50;99.90;;;;;;5057455;28;20400;-69
2022/07/02 01:01:10;;;;;;;0.00;0.00;;;15.40;99.90;;;;;;5084836;28;20037;-69
2022/07/02 01:03:37;;;;;;;0.00;0.00;;;15.40;99.90;;;;;;5053757;28;20384;-69
2022/07/02 01:06:03;;;;;;;0.10;0.10;;;15.40;99.90;;;;;;5067646;28;20072;-69
2022/07/02 01:11:17;;;;;;;0.00;0.00;;;15.20;99.90;;;;;;5053201;28;20052;-69
2022/07/02 01:13:42;;;;;;;0.10;0.10;;;15.10;99.90;;;;;;5068810;28;20085;-69
2022/07/02 01:16:08;;;;;;;0.00;0.00;;;15.10;99.90;;;;;;5082544;28;20523;-69
2022/07/02 01:18:35;;;;;;;0.20;0.20;;;15.00;99.90;;;;;;5090034;28;20076;-69
2022/07/02 01:21:01;;;;;;;0.00;0.00;;;15.10;99.90;;;;;;5086831;28;20048;-69
2022/07/02 01:23:26;;;;;;;0.00;0.00;;;15.00;99.90;;;;;;5069189;28;20054;-69
2022/07/02 01:25:53;;;;;;;0.10;0.10;;;15.00;99.90;;;;;;5070288;28;20044;-69
2022/07/02 01:28:20;;;;;;;0.10;0.10;;;15.00;99.90;;;;;;5068813;28;20507;-69
2022/07/02 01:30:49;;;;;;;0.52;0.45;;;15.10;99.90;;;;;;5049805;28;20080;-69
2022/07/02 01:33:15;;;;;;;0.85;0.82;;;15.10;99.90;;;;;;5073078;28;20559;-69
2022/07/02 01:35:41;;;;;;;0.20;0.20;;;15.00;99.90;;;;;;5055141;28;20177;-69
2022/07/02 01:38:06;;;;;;;0.10;0.10;;;15.00;99.90;;;;;;5073906;28;20060;-69
2022/07/02 01:40:32;;;;;;;0.00;0.00;;;15.00;99.90;;;;;;5062579;28;20494;-69
2022/07/02 01:42:57;;;;;;;1.58;1.48;;;15.00;99.90;;;;;;5075022;28;20052;-69
2022/07/02 01:45:23;;;;;;;0.05;0.05;;;14.90;99.90;;;;;;5053011;28;20045;-69
2022/07/02 01:47:48;;;;;;;0.10;0.10;;;14.90;99.90;;;;;;5074278;28;20048;-69
2022/07/02 01:50:14;;;;;;;0.10;0.10;;;14.90;99.90;;;;;;5054796;28;20420;-69
2022/07/02 01:52:40;;;;;;;0.10;0.10;;;14.80;99.90;;;;;;5051971;28;20053;-69
2022/07/02 01:55:05;;;;;;;0.15;0.15;;;14.90;99.90;;;;;;5073052;28;20060;-69
2022/07/02 01:57:35;;;;;;;0.10;0.10;;;14.90;99.90;;;;;;5055176;28;20181;-69
2022/07/02 02:00:03;;;;;;;0.63;0.63;;;14.90;99.90;;;;;;5049312;28;20040;-69
2022/07/02 02:02:29;;;;;;;0.10;0.10;;;14.90;99.90;;;;;;5070225;28;20044;-69
2022/07/02 02:04:55;;;;;;;0.08;0.08;;;14.90;99.90;;;;;;5077801;28;20043;-69
2022/07/02 02:07:20;;;;;;;0.10;0.10;;;14.90;99.90;;;;;;5093320;28;20056;-69
2022/07/02 02:09:46;;;;;;;0.10;0.10;;;15.00;99.90;;;;;;5093090;28;20036;-69
2022/07/02 02:12:12;;;;;;;0.20;0.20;;;15.00;99.90;;;;;;5054210;28;20056;-70
2022/07/02 02:14:37;;;;;;;0.13;0.13;;;15.00;99.90;;;;;;5071840;28;20076;-69
2022/07/02 02:17:03;;;;;;;0.00;0.00;;;15.10;99.90;;;;;;5072368;28;20057;-69
2022/07/02 02:19:29;;;;;;;0.10;0.10;;;15.00;99.90;;;;;;5058367;28;20036;-69
2022/07/02 02:21:55;;;;;;;0.10;0.10;;;15.10;99.90;;;;;;5074956;28;20044;-69
2022/07/02 02:24:21;;;;;;;0.10;0.10;;;15.00;99.90;;;;;;5092169;28;20051;-69
2022/07/02 02:26:47;;;;;;;0.00;0.00;;;15.00;99.90;;;;;;5093845;28;20430;-69
2022/07/02 02:29:12;;;;;;;0.10;0.10;;;14.90;99.90;;;;;;5054615;28;20098;-69
2022/07/02 02:31:38;;;;;;;0.10;0.10;;;14.90;99.90;;;;;;5070295;28;20071;-69
2022/07/02 02:34:04;;;;;;;0.00;0.00;;;14.90;99.90;;;;;;5071368;28;20036;-69
2022/07/02 02:36:30;;;;;;;0.10;0.10;;;14.90;99.90;;;;;;5091293;28;20056;-69
2022/07/02 02:38:55;;;;;;;0.10;0.10;;;14.90;99.90;;;;;;5087966;28;20075;-69
2022/07/02 02:41:21;;;;;;;0.90;0.75;;;15.00;99.90;;;;;;5071810;28;20080;-69
2022/07/02 02:43:46;;;;;;;0.00;0.00;;;15.00;99.90;;;;;;5071772;28;20052;-69
2022/07/02 02:46:12;;;;;;;0.25;0.25;;;15.00;99.90;;;;;;5053988;28;20044;-69
2022/07/02 02:48:38;;;;;;;0.10;0.10;;;14.90;99.90;;;;;;5070338;28;20051;-69
2022/07/02 02:51:05;;;;;;;0.05;0.05;;;14.80;99.90;;;;;;5054500;28;20080;-69
2022/07/02 02:53:31;;;;;;;0.10;0.10;;;14.90;99.90;;;;;;5069568;28;20068;-69
2022/07/02 02:55:58;;;;;;;0.10;0.10;;;15.00;99.90;;;;;;5072067;28;20060;-69
2022/07/02 02:58:25;;;;;;;0.10;0.10;;;15.00;99.90;;;;;;5072133;28;20051;-70
2022/07/02 03:00:51;;;;;;;0.00;0.00;;;15.00;99.90;;;;;;5071257;28;20043;-70
2022/07/02 03:03:17;;;;;;;0.00;0.00;;;14.90;99.90;;;;;;5072765;28;20048;-69
2022/07/02 03:05:42;;;;;;;0.10;0.10;;;14.90;99.90;;;;;;5069943;28;20110;-69
2022/07/02 03:08:08;;;;;;;0.10;0.10;;;15.00;99.90;;;;;;5072512;28;20048;-70
2022/07/02 03:10:33;;;;;;;0.10;0.10;;;15.00;99.90;;;;;;5072526;28;20051;-69
2022/07/02 03:12:59;;;;;;;0.10;0.10;;;15.00;99.90;;;;;;5052510;28;20044;-69
2022/07/02 03:15:26;;;;;;;1.10;0.55;;;15.00;99.90;;;;;;5070781;28;20037;-69
2022/07/02 03:17:51;;;;;;;0.10;0.10;;;15.00;99.90;;;;;;5051444;28;20416;-69
2022/07/02 03:20:17;;;;;;;0.30;0.30;;;15.00;99.90;;;;;;5051338;28;20049;-69
2022/07/02 03:22:42;;;;;;;0.25;0.25;;;15.00;99.90;;;;;;5033817;28;20055;-69
2022/07/02 03:25:08;;;;;;;0.08;0.08;;;15.00;99.90;;;;;;5047870;28;20372;-69
2022/07/02 03:27:35;;;;;;;1.55;0.95;;;15.00;99.90;;;;;;5091163;28;20071;-69
2022/07/02 03:30:01;;;;;;;0.20;0.20;;;15.00;99.90;;;;;;5073803;28;20398;-69
2022/07/02 03:32:29;;;;;;;0.00;0.00;;;15.00;99.90;;;;;;5092001;28;20044;-70
2022/07/02 03:34:56;;;;;;;0.10;0.10;;;15.00;99.90;;;;;;5081422;28;20040;-70
2022/07/02 03:37:26;;;;;;;0.10;0.10;;;15.00;99.90;;;;;;5071337;28;20098;-69
2022/07/02 03:39:52;;;;;;;1.15;0.55;;;15.00;99.90;;;;;;5071018;28;20048;-70
2022/07/02 03:42:18;;;;;;;0.00;0.00;;;15.00;99.90;;;;;;5086270;28;20134;-70
2022/07/02 03:44:43;;;;;;;0.10;0.10;;;15.00;99.90;;;;;;5092038;28;20139;-69
2022/07/02 03:47:09;;;;;;;0.10;0.10;;;15.00;99.90;;;;;;5091869;28;20058;-70
2022/07/02 03:49:34;;;;;;;0.10;0.10;;;15.10;99.90;;;;;;5087786;28;20044;-69
2022/07/02 03:52:00;;;;;;;0.10;0.10;;;15.10;99.90;;;;;;5071041;28;20049;-70
2022/07/02 03:54:25;;;;;;;0.00;0.00;;;15.10;99.90;;;;;;5052684;28;20450;-70
2022/07/02 03:56:51;;;;;;;0.03;0.03;;;15.10;99.90;;;;;;5052809;28;20075;-70
2022/07/02 03:59:17;;;;;;;0.20;0.20;;;15.00;99.90;;;;;;5083804;28;20047;-70
2022/07/02 04:01:42;;;;;;;0.10;0.10;;;15.10;99.90;;;;;;5081527;28;20053;-70
2022/07/02 04:04:08;;;;;;;0.98;0.57;;;15.10;99.90;;;;;;5049640;28;20142;-70
2022/07/02 04:06:33;;;;;;;0.10;0.10;;;15.10;99.90;;;;;;5033343;28;20057;-70
2022/07/02 04:08:59;;;;;;;0.00;0.00;;;15.10;99.90;;;;;;5049577;28;20059;-70
2022/07/02 04:11:25;;;;;;;0.10;0.10;;;15.10;99.90;;;;;;5083700;28;20033;-70
2022/07/02 04:13:50;;;;;;;0.10;0.10;;;15.20;99.90;;;;;;5071527;28;20040;-69
2022/07/02 04:16:16;;;;;;;0.10;0.10;;;15.20;99.90;;;;;;5071339;28;20170;-70
2022/07/02 04:18:42;;;;;;;0.00;0.00;;;15.30;99.90;;;;;;5091133;28;20086;-70
2022/07/02 04:21:07;;;;;;;1.38;0.47;;;15.30;99.90;;;;;;5069823;28;20085;-70
2022/07/02 04:23:33;;;;;;;0.00;0.00;;;15.30;99.90;;;;;;5090341;28;20522;-70
2022/07/02 04:25:58;;;;;;;0.00;0.00;;;15.30;99.90;;;;;;5051376;28;20401;-70
2022/07/02 04:28:25;;;;;;;0.20;0.20;;;15.30;99.90;;;;;;5069039;28;20044;-69
2022/07/02 04:30:51;;;;;;;0.10;0.10;;;15.30;99.90;;;;;;5070189;28;20048;-70
2022/07/02 04:33:16;;;;;;;0.40;0.40;;;15.40;99.90;;;;;;5070763;28;20055;-69
2022/07/02 04:35:42;;;;;;;0.10;0.10;;;15.40;99.90;;;;;;5050228;28;20089;-70
2022/07/02 04:38:08;;;;;;;0.30;0.30;;;15.40;99.90;;;;;;5052157;28;20045;-70
2022/07/02 04:40:33;;;;;;;0.10;0.10;;;15.50;99.90;;;;;;5070517;28;20484;-70
2022/07/02 04:42:59;;;;;;;0.00;0.00;;;15.50;99.90;;;;;;5052410;28;20591;-70
2022/07/02 04:45:24;;;;;;;0.52;0.52;;;15.50;99.90;;;;;;5067930;28;20067;-70
2022/07/02 04:47:50;;;;;;;0.00;0.00;;;15.50;99.90;;;;;;5049639;28;20048;-70
2022/07/02 04:50:15;;;;;;;0.10;0.10;;;15.60;99.90;;;;;;5050322;28;20127;-70
2022/07/02 04:52:41;;;;;;;0.00;0.00;;;15.60;99.90;;;;;;5031977;28;20049;-69
2022/07/02 04:55:07;;;;;;;0.00;0.00;;;15.60;99.90;;;;;;5089810;28;20517;-70
2022/07/02 04:57:32;;;;;;;0.00;0.00;;;15.60;99.90;;;;;;5072146;28;20048;-69
2022/07/02 04:59:58;;;;;;;0.00;0.00;;;15.60;99.90;;;;;;5089828;28;20035;-70
2022/07/02 05:02:23;;;;;;;0.60;0.60;;;15.70;99.90;;;;;;5086709;28;20040;-69
2022/07/02 05:04:49;;;;;;;0.30;0.30;;;15.70;99.90;;;;;;5070269;28;20039;-69
2022/07/02 05:07:14;;;;;;;0.00;0.00;;;15.70;99.90;;;;;;5066440;28;20099;-70
2022/07/02 05:09:40;;;;;;;0.10;0.10;;;15.80;99.90;;;;;;5070032;28;20044;-69
2022/07/02 05:12:06;;;;;;;0.65;0.45;;;15.80;99.90;;;;;;5067045;28;20043;-70
2022/07/02 05:14:32;;;;;;;0.35;0.32;;;15.80;99.90;;;;;;5069829;28;20392;-70
2022/07/02 05:16:57;;;;;;;0.00;0.00;;;15.80;99.90;;;;;;5080090;28;20051;-69
2022/07/02 05:19:23;;;;;;;0.00;0.00;;;15.90;99.90;;;;;;5071269;28;20369;-70
2022/07/02 05:21:49;;;;;;;0.10;0.10;;;15.90;99.90;;;;;;5090226;28;20044;-69
2022/07/02 05:24:14;;;;;;;0.10;0.10;;;15.90;99.90;;;;;;5071243;28;20055;-70
2022/07/02 05:26:40;;;;;;;0.00;0.00;;;16.00;99.90;;;;;;5071309;28;20036;-70
2022/07/02 05:29:05;;;;;;;0.10;0.10;;;16.10;99.90;;;;;;5071814;28;20044;-69
2022/07/02 05:31:31;;;;;;;0.05;0.05;;;16.10;99.90;;;;;;5090096;28;20163;-70
2022/07/02 05:33:56;;;;;;;0.30;0.30;;;16.20;99.90;;;;;;5083974;28;20059;-70
2022/07/02 05:36:22;;;;;;;0.10;0.10;;;16.20;99.90;;;;;;5069290;28;20433;-70
2022/07/02 05:38:48;;;;;;;0.10;0.10;;;16.30;99.90;;;;;;5070188;28;20052;-69
2022/07/02 05:41:13;;;;;;;5.05;0.70;;;16.30;99.90;;;;;;5067242;28;20032;-70
2022/07/02 05:43:39;;;;;;;0.00;0.00;;;16.40;99.90;;;;;;5070507;28;20047;-69
2022/07/02 05:46:04;;;;;;;0.17;0.17;;;16.40;99.90;;;;;;5087738;28;20144;-69
2022/07/02 05:48:30;;;;;;;0.00;0.00;;;16.50;99.90;;;;;;5088837;28;20047;-69
2022/07/02 05:50:55;;;;;;;0.20;0.20;;;16.60;99.90;;;;;;5072048;28;20044;-69
2022/07/02 05:53:21;;;;;;;0.30;0.30;;;16.70;99.90;;;;;;5089654;28;20055;-69
2022/07/02 05:55:46;;;;;;;0.10;0.10;;;16.70;99.90;;;;;;5077955;28;20134;-69
2022/07/02 05:58:12;;;;;;;0.57;0.57;;;16.70;99.90;;;;;;5069465;28;20047;-69
2022/07/02 06:00:38;;;;;;;0.00;0.00;;;16.80;99.90;;;;;;5069501;28;20637;-69
2022/07/02 06:03:04;;;;;;;0.10;0.10;;;16.80;99.90;;;;;;5068841;28;20045;-70
2022/07/02 06:08:14;;;;;;;0.32;0.30;;;16.90;99.90;;;;;;5069310;28;20048;-69
2022/07/02 06:10:39;;;;;;;0.10;0.10;;;16.90;99.90;;;;;;5068809;28;20056;-69
2022/07/02 06:13:05;;;;;;;0.00;0.00;;;17.00;99.90;;;;;;5061118;28;20116;-69
2022/07/02 06:15:31;;;;;;;0.10;0.10;;;17.00;99.90;;;;;;5072699;28;20476;-69
2022/07/02 06:18:00;;;;;;;0.70;0.32;;;17.00;99.90;;;;;;5070581;28;20052;-69
2022/07/02 06:20:26;;;;;;;0.03;0.03;;;17.10;99.90;;;;;;5072608;28;20090;-70
2022/07/02 06:22:51;;;;;;;0.15;0.15;;;17.20;99.90;;;;;;5051231;28;20396;-70
2022/07/02 06:25:17;;;;;;;0.90;0.52;;;17.20;99.90;;;;;;5053318;28;20701;-70
2022/07/02 06:27:42;;;;;;;0.52;0.52;;;17.20;99.90;;;;;;5044000;28;20053;-70
2022/07/02 06:30:08;;;;;;;0.10;0.10;;;17.30;99.90;;;;;;5066286;28;20426;-70
2022/07/02 06:32:35;;;;;;;0.00;0.00;;;17.30;99.90;;;;;;5073975;28;20052;-70
2022/07/02 06:35:02;;;;;;;0.00;0.00;;;17.30;99.90;;;;;;5093408;28;20048;-70
2022/07/02 06:37:27;;;;;;;0.10;0.10;;;17.20;99.90;;;;;;5089118;28;20048;-70
2022/07/02 06:39:53;;;;;;;1.58;1.48;;;17.20;99.90;;;;;;5049684;28;20067;-70
2022/07/02 06:42:19;;;;;;;10.18;0.52;;;17.40;99.90;;;;;;5065614;28;20044;-70
2022/07/02 06:44:55;;;;;;;7.38;1.17;;;17.40;99.90;;;;;;5092511;28;20404;-70
2022/07/02 06:47:21;;;;;;;0.10;0.10;;;17.50;99.90;;;;;;5093219;28;20137;-70
2022/07/02 06:49:47;;;;;;;0.00;0.00;;;17.70;99.90;;;;;;5052039;28;20484;-70
2022/07/02 06:52:13;;;;;;;0.00;0.00;;;17.80;99.90;;;;;;5072303;28;20049;-70
2022/07/02 06:54:39;;;;;;;0.00;0.00;;;17.90;99.90;;;;;;5072454;28;20047;-69
2022/07/02 06:57:06;;;;;;;4.57;0.20;;;18.00;99.90;;;;;;5092500;28;20554;-70
2022/07/02 06:59:31;;;;;;;0.10;0.10;;;18.00;99.90;;;;;;5074031;28;20057;-70
2022/07/02 07:01:57;;;;;;;0.10;0.10;;;18.10;99.90;;;;;;5081545;28;20070;-70
2022/07/02 07:04:24;;;;;;;0.10;0.10;;;18.30;99.90;;;;;;5072713;28;20076;-70
2022/07/02 07:06:54;;;;;;;0.10;0.10;;;18.30;99.90;;;;;;5072387;28;20051;-70
2022/07/02 07:09:20;;;;;;;0.00;0.00;;;18.30;99.90;;;;;;5081402;28;20048;-70
2022/07/02 07:11:45;;;;;;;2.05;1.67;;;18.40;99.90;;;;;;5081939;28;20104;-70
2022/07/02 07:14:11;;;;;;;0.10;0.10;;;18.50;99.90;;;;;;5072270;28;20052;-70
2022/07/02 07:16:37;;;;;;;0.22;0.22;;;18.60;99.90;;;;;;5071251;28;20048;-70
2022/07/02 07:19:07;;;;;;;6.00;2.47;;;18.60;99.90;;;;;;5070607;28;20442;-71
2022/07/02 07:21:33;;;;;;;0.10;0.10;;;18.50;99.90;;;;;;5052600;28;20052;-69
2022/07/02 07:23:59;;;;;;;0.05;0.05;;;18.60;99.90;;;;;;5071543;28;20123;-70
2022/07/02 07:26:24;;;;;;;3.20;0.90;;;18.60;99.90;;;;;;5076677;28;20452;-69
2022/07/02 07:28:50;;;;;;;0.00;0.00;;;18.50;99.90;;;;;;5092114;28;20052;-70
2022/07/02 07:31:21;;;;;;;0.20;0.20;;;18.40;99.90;;;;;;5073793;28;20395;-70
2022/07/02 07:33:52;;;;;;;0.05;0.05;;;18.30;99.90;;;;;;5092198;28;20040;-70
2022/07/02 07:36:19;;;;;;;0.22;0.22;;;18.30;99.90;;;;;;5070907;28;20596;-70
2022/07/02 07:38:45;;;;;;;0.15;0.15;;;18.20;99.90;;;;;;5092273;28;20048;-70
2022/07/02 07:41:11;;;;;;;0.00;0.00;;;18.20;99.90;;;;;;5070301;28;20123;-70
2022/07/02 07:43:36;;;;;;;0.00;0.00;;;18.20;99.90;;;;;;5053873;28;20495;-70
2022/07/02 07:46:02;;;;;;;0.00;0.00;;;18.20;99.90;;;;;;5071991;28;20388;-70
2022/07/02 07:48:28;;;;;;;0.10;0.10;;;18.40;99.90;;;;;;5069586;28;20484;-70
2022/07/02 07:50:54;;;;;;;0.35;0.35;;;18.50;99.90;;;;;;5071445;28;20098;-70
2022/07/02 07:53:19;;;;;;;0.10;0.10;;;18.60;99.90;;;;;;5053511;28;20041;-70
2022/07/02 07:55:45;;;;;;;1.65;1.02;;;18.50;99.90;;;;;;5071230;28;20083;-70
2022/07/02 07:58:11;;;;;;;0.00;0.00;;;18.40;99.90;;;;;;5076782;28;20137;-69
2022/07/02 08:00:37;;;;;;;0.10;0.10;;;18.30;99.90;;;;;;5091833;28;20511;-69
2022/07/02 08:03:02;;;;;;;0.10;0.10;;;18.20;99.90;;;;;;5084758;28;20373;-69
2022/07/02 08:05:28;;;;;;;0.00;0.00;;;18.30;99.90;;;;;;5071434;28;20056;-70
2022/07/02 08:07:53;;;;;;;0.00;0.00;;;18.30;99.90;;;;;;5069611;28;20115;-69
2022/07/02 08:10:19;;;;;;;0.10;0.10;;;18.40;99.90;;;;;;5071161;28;20044;-70
2022/07/02 08:12:45;;;;;;;0.70;0.38;;;18.50;99.90;;;;;;5071079;28;20040;-70
2022/07/02 08:15:11;;;;;;;0.00;0.00;;;18.50;99.90;;;;;;5079075;28;20055;-70
2022/07/02 08:17:37;;;;;;;0.08;0.08;;;18.60;99.90;;;;;;5071214;28;20037;-69
2022/07/02 08:20:05;;;;;;;0.00;0.00;;;18.70;99.90;;;;;;5051299;28;20070;-69
2022/07/02 08:22:32;;;;;;;0.00;0.00;;;18.80;99.90;;;;;;5069719;28;20048;-69
2022/07/02 08:24:57;;;;;;;0.45;0.32;;;18.80;99.90;;;;;;5070779;28;20051;-69
2022/07/02 08:27:23;;;;;;;0.00;0.00;;;18.90;99.90;;;;;;5081208;28;20036;-69
2022/07/02 08:29:48;;;;;;;0.00;0.00;;;18.90;99.90;;;;;;5072106;28;20096;-69
2022/07/02 08:32:14;;;;;;;1.77;1.00;;;18.90;99.90;;;;;;5084725;28;20400;-69
2022/07/02 08:34:40;;;;;;;0.00;0.00;;;19.00;99.90;;;;;;5072616;28;20048;-70
2022/07/02 08:37:06;;;;;;;0.10;0.10;;;19.00;99.90;;;;;;5083252;28;20056;-70
2022/07/02 08:39:31;;;;;;;0.10;0.10;;;18.90;99.90;;;;;;5072324;28;20059;-71
2022/07/02 08:41:59;;;;;;;0.00;0.00;;;18.90;99.90;;;;;;5091037;28;20048;-70
2022/07/02 08:44:25;;;;;;;0.10;0.10;;;19.00;99.90;;;;;;5089925;28;20445;-70
2022/07/02 08:46:51;;;;;;;0.32;0.32;;;19.10;99.90;;;;;;5075487;28;20147;-70
2022/07/02 08:49:21;;;;;;;0.08;0.08;;;19.20;99.90;;;;;;5049026;28;20048;-70
2022/07/02 08:52:09;;;;;;;0.00;0.00;;;19.30;99.90;;;;;;5050130;28;20044;-70
2022/07/02 08:54:35;;;;;;;0.10;0.10;;;19.50;99.90;;;;;;5063560;28;20070;-70
2022/07/02 08:57:02;;;;;;;0.00;0.00;;;19.50;99.90;;;;;;5069956;28;20883;-69
2022/07/02 08:59:32;;;;;;;0.00;0.00;;;19.40;99.90;;;;;;5050866;28;20491;-70
2022/07/02 09:02:00;;;;;;;0.00;0.00;;;19.20;99.90;;;;;;5070372;28;20044;-70
2022/07/02 09:04:26;;;;;;;0.10;0.10;;;19.10;99.90;;;;;;5051228;28;20048;-69
2022/07/02 09:06:58;;;;;;;2.38;1.25;;;19.20;99.90;;;;;;5068681;28;20395;-69
2022/07/02 09:09:27;;;;;;;0.43;0.43;;;19.30;99.90;;;;;;5070121;28;20133;-71
2022/07/02 09:11:54;;;;;;;0.00;0.00;;;19.50;99.90;;;;;;5068124;28;20128;-70
2022/07/02 09:14:20;;;;;;;0.08;0.08;;;19.50;99.90;;;;;;5072734;28;20047;-71
2022/07/02 09:16:50;;;;;;;0.17;0.17;;;19.70;99.90;;;;;;5090769;28;20429;-71
2022/07/02 09:19:16;;;;;;;0.00;0.00;;;19.80;99.90;;;;;;5089244;28;20044;-71
2022/07/02 09:21:51;;;;;;;0.10;0.10;;;19.90;99.90;;;;;;5086418;28;20483;-70
2022/07/02 09:24:33;;;;;;;1.83;0.98;;;19.90;99.90;;;;;;5089900;28;20782;-71
2022/07/02 09:27:08;;;;;;;0.95;0.90;;;19.90;99.90;;;;;;5082136;28;20049;-71
2022/07/02 09:29:43;;;;;;;0.00;0.00;;;19.90;99.90;;;;;;5069816;28;20123;-71
2022/07/02 09:32:10;;;;;;;0.08;0.08;;;19.70;99.90;;;;;;5070135;28;20048;-70
2022/07/02 09:34:42;;;;;;;0.30;0.20;;;19.60;99.90;;;;;;5066955;28;20037;-70
2022/07/02 09:37:18;;;;;;;0.00;0.00;;;19.50;99.90;;;;;;5069686;28;20044;-70
2022/07/02 09:39:46;;;;;;;0.08;0.08;;;19.50;99.90;;;;;;5051208;28;20056;-70
2022/07/02 09:42:22;;;;;;;0.00;0.00;;;19.70;99.90;;;;;;5068236;28;20046;-70
2022/07/02 09:44:47;;;;;;;0.00;0.00;;;19.80;99.90;;;;;;5070155;28;20048;-70
2022/07/02 09:47:14;;;;;;;0.10;0.10;;;19.90;99.90;;;;;;5059759;28;20400;-70
2022/07/02 09:49:50;;;;;;;0.00;0.00;;;20.10;99.90;;;;;;5068814;28;20045;-70
2022/07/02 09:52:17;;;;;;;0.52;0.30;;;20.50;99.90;;;;;;5069918;28;20044;-70
2022/07/02 09:54:44;;;;;;;0.05;0.05;;;20.80;99.90;;;;;;5064153;28;20041;-71
2022/07/02 09:57:12;;;;;;;0.10;0.10;;;21.10;99.90;;;;;;5072537;28;20096;-70
2022/07/02 09:59:39;;;;;;;0.00;0.00;;;21.30;99.90;;;;;;5053940;28;20048;-70
2022/07/02 10:02:17;;;;;;;0.10;0.10;;;21.20;99.90;;;;;;5072407;28;20115;-71
2022/07/02 10:04:44;;;;;;;0.10;0.10;;;21.10;99.90;;;;;;5073627;28;20040;-70
2022/07/02 10:07:10;;;;;;;0.00;0.00;;;20.90;99.90;;;;;;5055708;28;20441;-71
2022/07/02 10:09:39;;;;;;;0.00;0.00;;;21.00;99.90;;;;;;5087308;28;20048;-70
2022/07/02 10:12:07;;;;;;;0.05;0.05;;;21.30;99.90;;;;;;5059212;28;20055;-71
2022/07/02 10:14:36;;;;;;;0.73;0.73;;;21.40;99.90;;;;;;5037587;28;20473;-71
2022/07/02 10:17:02;;;;;;;0.00;0.00;;;21.60;99.90;;;;;;5035304;28;20048;-69
2022/07/02 10:19:30;;;;;;;0.10;0.10;;;21.80;99.90;;;;;;5069143;28;20167;-68
2022/07/02 10:21:57;;;;;;;0.00;0.00;;;21.50;99.90;;;;;;5072738;28;20041;-69
2022/07/02 10:24:25;;;;;;;0.03;0.03;;;21.30;99.90;;;;;;5080435;28;20127;-68
2022/07/02 10:26:51;;;;;;;0.00;0.00;;;21.20;99.90;;;;;;5093542;28;20044;-68
2022/07/02 10:29:18;;;;;;;0.00;0.00;;;21.10;99.90;;;;;;5092350;28;20059;-68
2022/07/02 10:31:52;;;;;;;0.05;0.05;;;21.10;99.90;;;;;;5093584;28;20035;-68
2022/07/02 10:34:56;;;;;;;0.10;0.10;;;21.00;99.90;;;;;;5057442;28;20052;-68
2022/07/02 10:37:22;;;;;;;0.00;0.00;;;21.30;99.90;;;;;;5050516;28;20416;-68
2022/07/02 10:39:47;;;;;;;0.15;0.15;;;21.10;99.90;;;;;;5055376;28;20120;-69
2022/07/02 10:42:13;;;;;;;0.00;0.00;;;20.90;99.90;;;;;;5050903;28;20049;-68
2022/07/02 10:44:40;;;;;;;0.65;0.45;;;21.00;99.90;;;;;;5052214;28;20041;-68
2022/07/02 10:47:24;;;;;;;0.10;0.10;;;21.10;99.90;;;;;;5055534;28;20083;-68
2022/07/02 10:49:58;;;;;;;0.75;0.52;;;21.10;99.90;;;;;;5071960;28;20102;-67
2022/07/02 10:52:46;;;;;;;0.00;0.00;;;21.20;99.90;;;;;;5067155;28;20466;-68
2022/07/02 10:55:12;;;;;;;0.00;0.00;;;21.30;99.90;;;;;;5072401;28;20071;-67
2022/07/02 10:57:39;;;;;;;0.00;0.00;;;21.40;99.90;;;;;;5052723;28;20052;-68
2022/07/02 11:00:06;;;;;;;0.00;0.00;;;21.70;99.90;;;;;;5071624;28;20550;-68
2022/07/02 11:02:35;;;;;;;0.20;0.20;;;21.70;99.90;;;;;;5072355;28;20579;-68
2022/07/02 11:05:08;;;;;;;0.00;0.00;;;22.10;99.90;;;;;;5068109;28;20102;-68
2022/07/02 11:07:42;;;;;;;0.10;0.10;;;22.20;99.90;;;;;;5072494;28;20053;-68
2022/07/02 11:10:09;;;;;;;0.20;0.20;;;22.40;99.90;;;;;;5072309;28;20044;-68
2022/07/02 11:12:46;;;;;;;0.08;0.08;;;22.30;99.90;;;;;;5048248;28;20542;-68
2022/07/02 11:15:22;;;;;;;0.00;0.00;;;22.50;99.90;;;;;;5050717;28;20082;-67
2022/07/02 11:17:51;;;;;;;0.10;0.10;;;22.50;99.90;;;;;;5071677;28;20128;-68
2022/07/02 11:20:27;;;;;;;0.00;0.00;;;22.80;99.90;;;;;;5072716;28;20454;-68
2022/07/02 11:22:53;;;;;;;0.10;0.10;;;22.60;99.90;;;;;;5034228;28;20052;-68
2022/07/02 11:25:19;;;;;;;0.05;0.05;;;22.30;99.90;;;;;;5032904;28;20048;-67
2022/07/02 11:27:56;;;;;;;0.20;0.20;;;22.20;99.90;;;;;;5052508;28;20193;-68
2022/07/02 11:30:26;;;;;;;0.00;0.00;;;22.00;99.90;;;;;;5056245;28;20044;-68
2022/07/02 11:32:52;;;;;;;0.00;0.00;;;21.90;99.90;;;;;;5050015;28;20150;-68
2022/07/02 11:35:17;;;;;;;0.00;0.00;;;21.80;99.90;;;;;;5051764;28;20132;-68
2022/07/02 11:37:44;;;;;;;0.00;0.00;;;21.50;99.90;;;;;;5050788;28;20468;-68
2022/07/02 11:40:18;;;;;;;0.00;0.00;;;21.40;99.90;;;;;;5090721;28;20487;-68
2022/07/02 11:42:44;;;;;;;0.00;0.00;;;21.30;99.90;;;;;;5073835;28;20054;-68
2022/07/02 11:45:09;;;;;;;0.20;0.20;;;21.30;99.90;;;;;;5066757;28;20052;-68
2022/07/02 11:47:45;;;;;;;0.10;0.10;;;21.30;99.90;;;;;;5072963;28;20044;-67
2022/07/02 11:50:11;;;;;;;0.00;0.00;;;21.40;99.90;;;;;;5073287;28;20447;-68
2022/07/02 11:52:37;;;;;;;0.00;0.00;;;21.50;99.90;;;;;;5091884;28;20083;-67
2022/07/02 11:55:04;;;;;;;0.10;0.10;;;21.60;99.90;;;;;;5075652;28;20408;-67
2022/07/02 11:57:33;;;;;;;0.00;0.00;;;21.60;99.90;;;;;;5071199;28;20512;-67
2022/07/02 11:59:58;;;;;;;0.00;0.00;;;21.70;99.90;;;;;;5052960;28;20040;-68
2022/07/02 12:02:24;;;;;;;0.00;0.00;;;21.70;99.90;;;;;;5067289;28;20046;-68
2022/07/02 12:04:50;;;;;;;0.00;0.00;;;21.80;99.90;;;;;;5073488;28;20603;-67
2022/07/02 12:07:16;;;;;;;0.10;0.10;;;21.80;99.90;;;;;;5090619;28;20040;-68
2022/07/02 12:09:41;;;;;;;0.00;0.00;;;21.80;99.90;;;;;;5091501;28;20044;-68
2022/07/02 12:12:08;;;;;;;0.00;0.00;;;21.90;99.90;;;;;;5061996;28;20048;-68
2022/07/02 12:14:33;;;;;;;0.00;0.00;;;21.90;99.90;;;;;;5062825;28;20568;-68
2022/07/02 12:16:59;;;;;;;0.00;0.00;;;21.80;99.90;;;;;;5050646;28;20124;-68
2022/07/02 12:19:33;;;;;;;0.25;0.20;;;21.70;99.90;;;;;;5062176;28;20044;-67
2022/07/02 12:21:58;;;;;;;0.00;0.00;;;21.70;99.90;;;;;;5069691;28;20087;-67
2022/07/02 12:24:33;;;;;;;0.00;0.00;;;21.90;99.90;;;;;;5076136;28;20067;-68
2022/07/02 12:27:04;;;;;;;0.00;0.00;;;22.00;99.90;;;;;;5090923;28;20028;-68
2022/07/02 12:29:53;;;;;;;0.00;0.00;;;22.00;99.90;;;;;;5072279;28;20059;-68
2022/07/02 12:32:28;;;;;;;0.00;0.00;;;22.00;99.90;;;;;;5067499;28;20631;-68
2022/07/02 12:34:56;;;;;;;0.00;0.00;;;22.00;99.90;;;;;;5066886;28;20052;-68
2022/07/02 12:37:28;;;;;;;0.00;0.00;;;22.10;99.90;;;;;;5069746;28;20048;-68
2022/07/02 12:39:59;;;;;;;0.03;0.03;;;22.10;99.90;;;;;;5070662;28;20056;-67
2022/07/02 12:42:26;;;;;;;0.40;0.40;;;22.20;99.90;;;;;;5067186;28;20054;-68
2022/07/02 12:45:03;;;;;;;0.00;0.00;;;22.20;99.90;;;;;;5071026;28;20044;-68
2022/07/02 12:47:34;;;;;;;0.10;0.10;;;22.30;99.90;;;;;;5070672;28;20395;-68
2022/07/02 12:50:14;;;;;;;0.00;0.00;;;22.60;99.90;;;;;;5068058;28;20040;-68
2022/07/02 12:53:05;;;;;;;0.08;0.08;;;22.80;99.90;;;;;;5070034;28;20058;-68
2022/07/02 12:55:37;;;;;;;0.13;0.10;;;22.70;99.90;;;;;;5068305;28;20052;-67